RYR90FP EPKK-EGCC
Flight info
| Callsign | RYR90FP |
|---|---|
| Flight time | 2h 4m |
| Altitude | 38000 |
| Route | OMFOL T738 LASIS DCT BOLBO L986 SAS DCT RAVLO Y70 OTBED |
| Aircraft | B38M/M-SDE1FGHILORVWXY/HB1 |
Departure
| Time | 2026-05-07 11:03 |
|---|---|
| Airport | Kraków John Paul II International Airport (EPKK) |
Arrival
| Time | 2026-05-07 13:08 |
|---|---|
| Airport | Manchester Airport (EGCC) |
| Time | Latitude | Longitude | Altitude | Speed | Heading |
|---|---|---|---|---|---|
| 2026-05-07 10:23 | 50.07334 | 19.80209 | 792 ft | 0 kts | 167° |
| 2026-05-07 10:54 | 50.07336 | 19.80209 | 792 ft | 3 kts | 167° |
| 2026-05-07 10:54 | 50.07362 | 19.80200 | 797 ft | 4 kts | 167° |
| 2026-05-07 10:54 | 50.07388 | 19.80190 | 794 ft | 4 kts | 165° |
| 2026-05-07 10:55 | 50.07411 | 19.80177 | 794 ft | 2 kts | 147° |
| 2026-05-07 10:55 | 50.07418 | 19.80164 | 794 ft | 2 kts | 96° |
| 2026-05-07 10:55 | 50.07418 | 19.80146 | 794 ft | 2 kts | 77° |
| 2026-05-07 10:55 | 50.07417 | 19.80142 | 794 ft | 0 kts | 77° |
| 2026-05-07 10:58 | 50.07418 | 19.80151 | 794 ft | 2 kts | 77° |
| 2026-05-07 10:58 | 50.07424 | 19.80185 | 794 ft | 4 kts | 77° |
| 2026-05-07 10:58 | 50.07432 | 19.80241 | 794 ft | 6 kts | 78° |
| 2026-05-07 10:59 | 50.07442 | 19.80320 | 794 ft | 8 kts | 78° |
| 2026-05-07 10:59 | 50.07484 | 19.80383 | 794 ft | 9 kts | 19° |
| 2026-05-07 10:59 | 50.07550 | 19.80418 | 794 ft | 10 kts | 18° |
| 2026-05-07 10:59 | 50.07625 | 19.80412 | 794 ft | 12 kts | 348° |
| 2026-05-07 11:00 | 50.07704 | 19.80386 | 794 ft | 12 kts | 348° |
| 2026-05-07 11:00 | 50.07789 | 19.80357 | 794 ft | 11 kts | 347° |
| 2026-05-07 11:00 | 50.07837 | 19.80340 | 794 ft | 0 kts | 347° |
| 2026-05-07 11:01 | 50.07837 | 19.80339 | 794 ft | 0 kts | 347° |
| 2026-05-07 11:01 | 50.07846 | 19.80337 | 794 ft | 2 kts | 347° |
| 2026-05-07 11:01 | 50.07869 | 19.80329 | 794 ft | 4 kts | 347° |
| 2026-05-07 11:02 | 50.07907 | 19.80315 | 794 ft | 7 kts | 347° |
| 2026-05-07 11:02 | 50.07962 | 19.80296 | 793 ft | 10 kts | 347° |
| 2026-05-07 11:02 | 50.08014 | 19.80239 | 793 ft | 10 kts | 284° |
| 2026-05-07 11:02 | 50.08004 | 19.80130 | 794 ft | 12 kts | 258° |
| 2026-05-07 11:03 | 50.07942 | 19.79675 | 794 ft | 79 kts | 258° |
| 2026-05-07 11:03 | 50.07779 | 19.78507 | 795 ft | 139 kts | 258° |
| 2026-05-07 11:03 | 50.07555 | 19.76870 | 1152 ft | 158 kts | 259° |
| 2026-05-07 11:03 | 50.07314 | 19.75176 | 1888 ft | 171 kts | 257° |
| 2026-05-07 11:04 | 50.07045 | 19.73334 | 2660 ft | 170 kts | 258° |
| 2026-05-07 11:04 | 50.06827 | 19.71620 | 3650 ft | 163 kts | 258° |
| 2026-05-07 11:04 | 50.06665 | 19.69744 | 3951 ft | 189 kts | 273° |
| 2026-05-07 11:04 | 50.07045 | 19.67616 | 4172 ft | 222 kts | 291° |
| 2026-05-07 11:05 | 50.07640 | 19.65265 | 4694 ft | 238 kts | 284° |
| 2026-05-07 11:05 | 50.08149 | 19.62735 | 5359 ft | 253 kts | 285° |
| 2026-05-07 11:05 | 50.08697 | 19.60084 | 6255 ft | 256 kts | 285° |
| 2026-05-07 11:05 | 50.09255 | 19.57413 | 7085 ft | 264 kts | 285° |
| 2026-05-07 11:06 | 50.09821 | 19.54707 | 7916 ft | 267 kts | 285° |
| 2026-05-07 11:06 | 50.10406 | 19.51943 | 8779 ft | 271 kts | 285° |
| 2026-05-07 11:06 | 50.11001 | 19.49129 | 9622 ft | 275 kts | 285° |
| 2026-05-07 11:06 | 50.11608 | 19.46267 | 10322 ft | 283 kts | 285° |
| 2026-05-07 11:07 | 50.12246 | 19.43249 | 10691 ft | 302 kts | 285° |
| 2026-05-07 11:07 | 50.12917 | 19.40070 | 11201 ft | 315 kts | 285° |
| 2026-05-07 11:07 | 50.13610 | 19.36790 | 11914 ft | 320 kts | 285° |
| 2026-05-07 11:07 | 50.14312 | 19.33468 | 12663 ft | 325 kts | 285° |
| 2026-05-07 11:08 | 50.15023 | 19.30094 | 13426 ft | 329 kts | 285° |
| 2026-05-07 11:08 | 50.15743 | 19.26674 | 14120 ft | 334 kts | 285° |
| 2026-05-07 11:08 | 50.16470 | 19.23212 | 14836 ft | 337 kts | 284° |
| 2026-05-07 11:08 | 50.17205 | 19.19710 | 15542 ft | 340 kts | 284° |
| 2026-05-07 11:09 | 50.17944 | 19.16183 | 16238 ft | 343 kts | 284° |
| 2026-05-07 11:09 | 50.18687 | 19.12631 | 16920 ft | 347 kts | 284° |
| 2026-05-07 11:09 | 50.19437 | 19.09039 | 17609 ft | 350 kts | 284° |
| 2026-05-07 11:09 | 50.20196 | 19.05397 | 18255 ft | 354 kts | 284° |
| 2026-05-07 11:10 | 50.20950 | 19.01773 | 18810 ft | 356 kts | 283° |
| 2026-05-07 11:10 | 50.21717 | 18.98081 | 19375 ft | 359 kts | 283° |
| 2026-05-07 11:10 | 50.22488 | 18.94360 | 19932 ft | 361 kts | 283° |
| 2026-05-07 11:10 | 50.23264 | 18.90607 | 20479 ft | 364 kts | 283° |
| 2026-05-07 11:11 | 50.24045 | 18.86827 | 21029 ft | 367 kts | 283° |
| 2026-05-07 11:11 | 50.24830 | 18.83015 | 21587 ft | 369 kts | 283° |
| 2026-05-07 11:11 | 50.25618 | 18.79184 | 22137 ft | 372 kts | 283° |
| 2026-05-07 11:11 | 50.26412 | 18.75319 | 22679 ft | 375 kts | 283° |
| 2026-05-07 11:12 | 50.27210 | 18.71423 | 23228 ft | 377 kts | 283° |
| 2026-05-07 11:12 | 50.28012 | 18.67503 | 23701 ft | 380 kts | 283° |
| 2026-05-07 11:12 | 50.28809 | 18.63597 | 24147 ft | 382 kts | 282° |
| 2026-05-07 11:12 | 50.29620 | 18.59616 | 24597 ft | 384 kts | 282° |
| 2026-05-07 11:13 | 50.30435 | 18.55608 | 25050 ft | 387 kts | 282° |
| 2026-05-07 11:13 | 50.31253 | 18.51575 | 25496 ft | 389 kts | 282° |
| 2026-05-07 11:13 | 50.32074 | 18.47520 | 25935 ft | 391 kts | 282° |
| 2026-05-07 11:13 | 50.32898 | 18.43442 | 26349 ft | 394 kts | 282° |
| 2026-05-07 11:14 | 50.33713 | 18.39397 | 26760 ft | 396 kts | 282° |
| 2026-05-07 11:14 | 50.34545 | 18.35264 | 27172 ft | 399 kts | 282° |
| 2026-05-07 11:14 | 50.35380 | 18.31106 | 27575 ft | 402 kts | 282° |
| 2026-05-07 11:14 | 50.36220 | 18.26913 | 27977 ft | 404 kts | 282° |
| 2026-05-07 11:15 | 50.37063 | 18.22694 | 28358 ft | 407 kts | 282° |
| 2026-05-07 11:15 | 50.37910 | 18.18452 | 28745 ft | 409 kts | 282° |
| 2026-05-07 11:15 | 50.38759 | 18.14185 | 29129 ft | 411 kts | 281° |
| 2026-05-07 11:15 | 50.39611 | 18.09894 | 29505 ft | 414 kts | 281° |
| 2026-05-07 11:16 | 50.40468 | 18.05570 | 29869 ft | 416 kts | 281° |
| 2026-05-07 11:16 | 50.41327 | 18.01225 | 30188 ft | 418 kts | 281° |
| 2026-05-07 11:16 | 50.42177 | 17.96921 | 30524 ft | 419 kts | 281° |
| 2026-05-07 11:16 | 50.43040 | 17.92535 | 30847 ft | 421 kts | 281° |
| 2026-05-07 11:17 | 50.43903 | 17.88140 | 31163 ft | 422 kts | 281° |
| 2026-05-07 11:17 | 50.44767 | 17.83742 | 31484 ft | 424 kts | 282° |
| 2026-05-07 11:17 | 50.45943 | 17.79442 | 31793 ft | 435 kts | 294° |
| 2026-05-07 11:17 | 50.47538 | 17.75386 | 32152 ft | 436 kts | 295° |
| 2026-05-07 11:18 | 50.49034 | 17.71232 | 32397 ft | 435 kts | 291° |
| 2026-05-07 11:18 | 50.50446 | 17.67008 | 32706 ft | 437 kts | 291° |
| 2026-05-07 11:18 | 50.51865 | 17.62861 | 33117 ft | 436 kts | 292° |
| 2026-05-07 11:18 | 50.53310 | 17.58690 | 33554 ft | 434 kts | 292° |
| 2026-05-07 11:19 | 50.54762 | 17.54524 | 33967 ft | 433 kts | 292° |
| 2026-05-07 11:19 | 50.56214 | 17.50368 | 34316 ft | 431 kts | 292° |
| 2026-05-07 11:19 | 50.57658 | 17.46231 | 34616 ft | 431 kts | 292° |
| 2026-05-07 11:19 | 50.59105 | 17.42079 | 34910 ft | 431 kts | 292° |
| 2026-05-07 11:20 | 50.60528 | 17.37991 | 35205 ft | 431 kts | 292° |
| 2026-05-07 11:20 | 50.61965 | 17.33854 | 35498 ft | 430 kts | 292° |
| 2026-05-07 11:20 | 50.63398 | 17.29722 | 35758 ft | 430 kts | 292° |
| 2026-05-07 11:20 | 50.64827 | 17.25597 | 36018 ft | 430 kts | 292° |
| 2026-05-07 11:21 | 50.66266 | 17.21434 | 36271 ft | 430 kts | 292° |
| 2026-05-07 11:21 | 50.67700 | 17.17281 | 36525 ft | 430 kts | 292° |
| 2026-05-07 11:21 | 50.69128 | 17.13137 | 36741 ft | 430 kts | 292° |
| 2026-05-07 11:21 | 50.70558 | 17.08980 | 36966 ft | 431 kts | 292° |
| 2026-05-07 11:22 | 50.71986 | 17.04823 | 37181 ft | 431 kts | 293° |
| 2026-05-07 11:22 | 50.73411 | 17.00666 | 37412 ft | 431 kts | 293° |
| 2026-05-07 11:22 | 50.74821 | 16.96549 | 37632 ft | 431 kts | 293° |
| 2026-05-07 11:22 | 50.76241 | 16.92394 | 37834 ft | 431 kts | 293° |
| 2026-05-07 11:23 | 50.77667 | 16.88215 | 37946 ft | 432 kts | 293° |
| 2026-05-07 11:23 | 50.79094 | 16.84026 | 37937 ft | 432 kts | 293° |
| 2026-05-07 11:23 | 50.81927 | 16.75687 | 37943 ft | 431 kts | 293° |
| 2026-05-07 11:24 | 50.84757 | 16.67332 | 37946 ft | 431 kts | 293° |
| 2026-05-07 11:24 | 50.87578 | 16.58977 | 37951 ft | 432 kts | 292° |
| 2026-05-07 11:25 | 50.90412 | 16.50553 | 37940 ft | 432 kts | 292° |
| 2026-05-07 11:25 | 50.93238 | 16.42124 | 37950 ft | 433 kts | 292° |
| 2026-05-07 11:26 | 50.96045 | 16.33726 | 37948 ft | 433 kts | 292° |
| 2026-05-07 11:26 | 50.98864 | 16.25262 | 37947 ft | 434 kts | 292° |
| 2026-05-07 11:27 | 51.01696 | 16.16731 | 37952 ft | 434 kts | 293° |
| 2026-05-07 11:27 | 51.04490 | 16.08285 | 37954 ft | 435 kts | 292° |
| 2026-05-07 11:28 | 51.07306 | 15.99745 | 37957 ft | 435 kts | 293° |
| 2026-05-07 11:28 | 51.10114 | 15.91197 | 37962 ft | 436 kts | 293° |
| 2026-05-07 11:29 | 51.12921 | 15.82626 | 37963 ft | 437 kts | 293° |
| 2026-05-07 11:29 | 51.15705 | 15.74093 | 37963 ft | 437 kts | 293° |
| 2026-05-07 11:30 | 51.18507 | 15.65476 | 37965 ft | 438 kts | 293° |
| 2026-05-07 11:30 | 51.21309 | 15.56829 | 37969 ft | 438 kts | 293° |
| 2026-05-07 11:31 | 51.24104 | 15.48176 | 37964 ft | 439 kts | 293° |
| 2026-05-07 11:31 | 51.26901 | 15.39483 | 37968 ft | 440 kts | 293° |
| 2026-05-07 11:32 | 51.31070 | 15.26468 | 37973 ft | 440 kts | 293° |
| 2026-05-07 11:33 | 51.33861 | 15.17728 | 37963 ft | 441 kts | 293° |
| 2026-05-07 11:33 | 51.36627 | 15.09034 | 37961 ft | 441 kts | 292° |
| 2026-05-07 11:34 | 51.39409 | 15.00265 | 37966 ft | 442 kts | 292° |
| 2026-05-07 11:34 | 51.41785 | 14.91255 | 37976 ft | 436 kts | 283° |
| 2026-05-07 11:35 | 51.43804 | 14.82048 | 37974 ft | 439 kts | 286° |
| 2026-05-07 11:35 | 51.45879 | 14.72839 | 37953 ft | 438 kts | 285° |
| 2026-05-07 11:36 | 51.47912 | 14.63652 | 37957 ft | 439 kts | 285° |
| 2026-05-07 11:36 | 51.49613 | 14.55913 | 37076 ft | 439 kts | 286° |
| 2026-05-07 11:36 | 51.50622 | 14.51276 | 37182 ft | 440 kts | 289° |
| 2026-05-07 11:37 | 51.51628 | 14.46692 | 37387 ft | 440 kts | 289° |
| 2026-05-07 11:37 | 51.52644 | 14.42044 | 37550 ft | 441 kts | 289° |
| 2026-05-07 11:37 | 51.53655 | 14.37404 | 37722 ft | 441 kts | 289° |
| 2026-05-07 11:37 | 51.54665 | 14.32752 | 37895 ft | 441 kts | 289° |
| 2026-05-07 11:38 | 51.55674 | 14.28099 | 38005 ft | 441 kts | 289° |
| 2026-05-07 11:38 | 51.57701 | 14.18713 | 37999 ft | 447 kts | 289° |
| 2026-05-07 11:39 | 51.59750 | 14.09187 | 38000 ft | 452 kts | 289° |
| 2026-05-07 11:39 | 51.61800 | 13.99604 | 38000 ft | 452 kts | 288° |
| 2026-05-07 11:40 | 51.63837 | 13.90040 | 38000 ft | 452 kts | 288° |
| 2026-05-07 11:40 | 51.65871 | 13.80449 | 38000 ft | 452 kts | 288° |
| 2026-05-07 11:41 | 51.67881 | 13.70921 | 38000 ft | 452 kts | 288° |
| 2026-05-07 11:41 | 51.69897 | 13.61319 | 38000 ft | 452 kts | 288° |
| 2026-05-07 11:42 | 51.71911 | 13.51684 | 38000 ft | 452 kts | 288° |
| 2026-05-07 11:42 | 51.73899 | 13.42124 | 38000 ft | 452 kts | 288° |
| 2026-05-07 11:43 | 51.75892 | 13.32498 | 38000 ft | 452 kts | 288° |
| 2026-05-07 11:43 | 51.77881 | 13.22859 | 38000 ft | 452 kts | 288° |
| 2026-05-07 11:44 | 51.79734 | 13.13150 | 37994 ft | 451 kts | 282° |
| 2026-05-07 11:44 | 51.81160 | 13.03265 | 38001 ft | 452 kts | 284° |
| 2026-05-07 11:45 | 51.82689 | 12.93419 | 38003 ft | 452 kts | 283° |
| 2026-05-07 11:45 | 51.84201 | 12.83550 | 38001 ft | 452 kts | 283° |
| 2026-05-07 11:46 | 51.85702 | 12.73676 | 38001 ft | 452 kts | 283° |
| 2026-05-07 11:46 | 51.87195 | 12.63798 | 38001 ft | 452 kts | 283° |
| 2026-05-07 11:47 | 51.88683 | 12.53894 | 38002 ft | 452 kts | 283° |
| 2026-05-07 11:47 | 51.90148 | 12.44068 | 37705 ft | 451 kts | 283° |
| 2026-05-07 11:47 | 51.90880 | 12.39128 | 37409 ft | 450 kts | 283° |
| 2026-05-07 11:48 | 51.91606 | 12.34207 | 37111 ft | 450 kts | 283° |
| 2026-05-07 11:48 | 51.92332 | 12.29273 | 36811 ft | 449 kts | 283° |
| 2026-05-07 11:48 | 51.93055 | 12.24347 | 36516 ft | 449 kts | 283° |
| 2026-05-07 11:48 | 51.93774 | 12.19409 | 36220 ft | 449 kts | 283° |
| 2026-05-07 11:49 | 51.94487 | 12.14481 | 36009 ft | 449 kts | 283° |
| 2026-05-07 11:49 | 51.95915 | 12.04578 | 36001 ft | 452 kts | 283° |
| 2026-05-07 11:50 | 51.97336 | 11.94653 | 36000 ft | 452 kts | 283° |
| 2026-05-07 11:50 | 51.98740 | 11.84785 | 36004 ft | 452 kts | 282° |
| 2026-05-07 11:51 | 52.00155 | 11.74830 | 35999 ft | 452 kts | 283° |
| 2026-05-07 11:51 | 52.01559 | 11.64914 | 36002 ft | 452 kts | 282° |
| 2026-05-07 11:52 | 52.02959 | 11.54959 | 36004 ft | 452 kts | 282° |
| 2026-05-07 11:52 | 52.04349 | 11.45008 | 35998 ft | 452 kts | 282° |
| 2026-05-07 11:53 | 52.05730 | 11.35059 | 36004 ft | 452 kts | 282° |
| 2026-05-07 11:53 | 52.07107 | 11.25074 | 36001 ft | 452 kts | 282° |
| 2026-05-07 11:54 | 52.08473 | 11.15096 | 36001 ft | 452 kts | 282° |
| 2026-05-07 11:54 | 52.09821 | 11.05191 | 36000 ft | 452 kts | 282° |
| 2026-05-07 11:55 | 52.11172 | 10.95194 | 36001 ft | 452 kts | 282° |
| 2026-05-07 11:55 | 52.12515 | 10.85189 | 36002 ft | 452 kts | 282° |
| 2026-05-07 11:56 | 52.13853 | 10.75190 | 36002 ft | 452 kts | 282° |
| 2026-05-07 11:56 | 52.15175 | 10.65238 | 35999 ft | 452 kts | 282° |
| 2026-05-07 11:57 | 52.16496 | 10.55229 | 35999 ft | 452 kts | 282° |
| 2026-05-07 11:57 | 52.17808 | 10.45221 | 35999 ft | 452 kts | 282° |
| 2026-05-07 11:58 | 52.19112 | 10.35198 | 36004 ft | 452 kts | 282° |
| 2026-05-07 11:58 | 52.20402 | 10.25217 | 36001 ft | 452 kts | 281° |
| 2026-05-07 11:59 | 52.21689 | 10.15181 | 36002 ft | 452 kts | 281° |
| 2026-05-07 11:59 | 52.22968 | 10.05140 | 36003 ft | 452 kts | 281° |
| 2026-05-07 12:00 | 52.24240 | 9.95089 | 35998 ft | 452 kts | 281° |
| 2026-05-07 12:00 | 52.25520 | 9.85051 | 36003 ft | 452 kts | 281° |
| 2026-05-07 12:01 | 52.26809 | 9.75020 | 36000 ft | 452 kts | 281° |
| 2026-05-07 12:01 | 52.28081 | 9.65039 | 36003 ft | 452 kts | 281° |
| 2026-05-07 12:02 | 52.29353 | 9.54979 | 35997 ft | 452 kts | 281° |
| 2026-05-07 12:02 | 52.30616 | 9.44926 | 36001 ft | 452 kts | 281° |
| 2026-05-07 12:03 | 52.31872 | 9.34848 | 36000 ft | 452 kts | 281° |
| 2026-05-07 12:03 | 52.33118 | 9.24775 | 36002 ft | 452 kts | 281° |
| 2026-05-07 12:04 | 52.34355 | 9.14705 | 35998 ft | 452 kts | 281° |
| 2026-05-07 12:04 | 52.35584 | 9.04621 | 36001 ft | 452 kts | 281° |
| 2026-05-07 12:05 | 52.36797 | 8.94594 | 35998 ft | 452 kts | 281° |
| 2026-05-07 12:05 | 52.38009 | 8.84502 | 36000 ft | 452 kts | 281° |
| 2026-05-07 12:06 | 52.39217 | 8.74369 | 35999 ft | 452 kts | 281° |
| 2026-05-07 12:06 | 52.40404 | 8.64328 | 36002 ft | 452 kts | 281° |
| 2026-05-07 12:07 | 52.41590 | 8.54216 | 35997 ft | 452 kts | 280° |
| 2026-05-07 12:07 | 52.42769 | 8.44086 | 35999 ft | 452 kts | 280° |
| 2026-05-07 12:08 | 52.43938 | 8.33963 | 36000 ft | 452 kts | 280° |
| 2026-05-07 12:08 | 52.45092 | 8.23896 | 35998 ft | 452 kts | 280° |
| 2026-05-07 12:09 | 52.46243 | 8.13770 | 36000 ft | 452 kts | 280° |
| 2026-05-07 12:09 | 52.47386 | 8.03629 | 36003 ft | 452 kts | 280° |
| 2026-05-07 12:10 | 52.48520 | 7.93491 | 36000 ft | 452 kts | 280° |
| 2026-05-07 12:10 | 52.49645 | 7.83354 | 35998 ft | 452 kts | 280° |
| 2026-05-07 12:11 | 52.50758 | 7.73230 | 35996 ft | 448 kts | 280° |
| 2026-05-07 12:11 | 52.51852 | 7.63210 | 36003 ft | 448 kts | 279° |
| 2026-05-07 12:12 | 52.52943 | 7.53127 | 36005 ft | 448 kts | 279° |
| 2026-05-07 12:12 | 52.54025 | 7.43042 | 36004 ft | 448 kts | 279° |
| 2026-05-07 12:13 | 52.55098 | 7.32959 | 36000 ft | 448 kts | 279° |
| 2026-05-07 12:13 | 52.56163 | 7.22859 | 35998 ft | 448 kts | 279° |
| 2026-05-07 12:14 | 52.57214 | 7.12820 | 36002 ft | 448 kts | 279° |
| 2026-05-07 12:14 | 52.58261 | 7.02719 | 36001 ft | 448 kts | 279° |
| 2026-05-07 12:15 | 52.59300 | 6.92615 | 35997 ft | 448 kts | 279° |
| 2026-05-07 12:15 | 52.60331 | 6.82498 | 36000 ft | 448 kts | 279° |
| 2026-05-07 12:16 | 52.61352 | 6.72386 | 36002 ft | 448 kts | 279° |
| 2026-05-07 12:16 | 52.62365 | 6.62272 | 35997 ft | 448 kts | 279° |
| 2026-05-07 12:17 | 52.63370 | 6.52143 | 36002 ft | 448 kts | 279° |
| 2026-05-07 12:17 | 52.64358 | 6.42091 | 35997 ft | 448 kts | 279° |
| 2026-05-07 12:18 | 52.65344 | 6.31970 | 35997 ft | 448 kts | 278° |
| 2026-05-07 12:18 | 52.66322 | 6.21837 | 36000 ft | 448 kts | 278° |
| 2026-05-07 12:19 | 52.67292 | 6.11700 | 36000 ft | 448 kts | 278° |
| 2026-05-07 12:19 | 52.68253 | 6.01549 | 35998 ft | 448 kts | 278° |
| 2026-05-07 12:20 | 52.69206 | 5.91400 | 35999 ft | 448 kts | 278° |
| 2026-05-07 12:20 | 52.70145 | 5.81298 | 36001 ft | 448 kts | 278° |
| 2026-05-07 12:21 | 52.71079 | 5.71150 | 35996 ft | 447 kts | 278° |
| 2026-05-07 12:21 | 52.71849 | 5.62707 | 36002 ft | 448 kts | 278° |
| 2026-05-07 12:22 | 52.72768 | 5.52550 | 36002 ft | 447 kts | 278° |
| 2026-05-07 12:22 | 52.73679 | 5.42364 | 36003 ft | 448 kts | 278° |
| 2026-05-07 12:23 | 52.74574 | 5.32274 | 36000 ft | 447 kts | 278° |
| 2026-05-07 12:23 | 52.75466 | 5.22112 | 35998 ft | 447 kts | 278° |
| 2026-05-07 12:24 | 52.76349 | 5.11947 | 35998 ft | 447 kts | 278° |
| 2026-05-07 12:24 | 52.77225 | 5.01753 | 35999 ft | 447 kts | 278° |
| 2026-05-07 12:25 | 52.78087 | 4.91622 | 35997 ft | 447 kts | 277° |
| 2026-05-07 12:25 | 52.78944 | 4.81443 | 36003 ft | 447 kts | 277° |
| 2026-05-07 12:26 | 52.79793 | 4.71254 | 36000 ft | 447 kts | 277° |
| 2026-05-07 12:26 | 52.80632 | 4.61072 | 36001 ft | 447 kts | 277° |
| 2026-05-07 12:27 | 52.81462 | 4.50887 | 35998 ft | 447 kts | 277° |
| 2026-05-07 12:27 | 52.82285 | 4.40678 | 36003 ft | 447 kts | 277° |
| 2026-05-07 12:28 | 52.83098 | 4.30496 | 35998 ft | 447 kts | 277° |
| 2026-05-07 12:28 | 52.83903 | 4.20289 | 36001 ft | 447 kts | 277° |
| 2026-05-07 12:29 | 52.84700 | 4.10061 | 35998 ft | 447 kts | 277° |
| 2026-05-07 12:29 | 52.85488 | 3.99848 | 35998 ft | 447 kts | 277° |
| 2026-05-07 12:30 | 52.86266 | 3.89639 | 35998 ft | 447 kts | 277° |
| 2026-05-07 12:30 | 52.87031 | 3.79492 | 35998 ft | 447 kts | 277° |
| 2026-05-07 12:31 | 52.87794 | 3.69283 | 35998 ft | 447 kts | 277° |
| 2026-05-07 12:31 | 52.88549 | 3.59083 | 36001 ft | 447 kts | 276° |
| 2026-05-07 12:32 | 52.89296 | 3.48861 | 36003 ft | 447 kts | 276° |
| 2026-05-07 12:32 | 52.90036 | 3.38631 | 35999 ft | 447 kts | 276° |
| 2026-05-07 12:33 | 52.91129 | 3.23288 | 35998 ft | 447 kts | 276° |
| 2026-05-07 12:33 | 52.91946 | 3.13145 | 36001 ft | 447 kts | 281° |
| 2026-05-07 12:34 | 52.93255 | 3.03066 | 36000 ft | 447 kts | 282° |
| 2026-05-07 12:34 | 52.94578 | 2.93011 | 36000 ft | 447 kts | 282° |
| 2026-05-07 12:35 | 52.95900 | 2.82907 | 35998 ft | 447 kts | 282° |
| 2026-05-07 12:35 | 52.97212 | 2.72813 | 35998 ft | 447 kts | 282° |
| 2026-05-07 12:36 | 52.98506 | 2.62784 | 35999 ft | 447 kts | 282° |
| 2026-05-07 12:36 | 52.99798 | 2.52691 | 36000 ft | 447 kts | 282° |
| 2026-05-07 12:37 | 53.01084 | 2.42586 | 35998 ft | 447 kts | 281° |
| 2026-05-07 12:37 | 53.02360 | 2.32480 | 36001 ft | 447 kts | 281° |
| 2026-05-07 12:38 | 53.03627 | 2.22368 | 36001 ft | 447 kts | 281° |
| 2026-05-07 12:38 | 53.04888 | 2.12250 | 36003 ft | 447 kts | 281° |
| 2026-05-07 12:39 | 53.06136 | 2.02118 | 36000 ft | 447 kts | 281° |
| 2026-05-07 12:39 | 53.07376 | 1.91989 | 36000 ft | 447 kts | 281° |
| 2026-05-07 12:40 | 53.08606 | 1.81863 | 36000 ft | 447 kts | 281° |
| 2026-05-07 12:40 | 53.09822 | 1.71785 | 36000 ft | 447 kts | 281° |
| 2026-05-07 12:41 | 53.11037 | 1.61635 | 36004 ft | 447 kts | 281° |
| 2026-05-07 12:41 | 53.12243 | 1.51480 | 35998 ft | 447 kts | 281° |
| 2026-05-07 12:42 | 53.13440 | 1.41323 | 36000 ft | 447 kts | 281° |
| 2026-05-07 12:42 | 53.14622 | 1.31218 | 36004 ft | 447 kts | 281° |
| 2026-05-07 12:43 | 53.15800 | 1.21063 | 35999 ft | 447 kts | 281° |
| 2026-05-07 12:43 | 53.16971 | 1.10887 | 36000 ft | 447 kts | 280° |
| 2026-05-07 12:44 | 53.18135 | 1.00699 | 36004 ft | 447 kts | 280° |
| 2026-05-07 12:44 | 53.19287 | 0.90528 | 36004 ft | 446 kts | 280° |
| 2026-05-07 12:45 | 53.20431 | 0.80343 | 36000 ft | 446 kts | 280° |
| 2026-05-07 12:45 | 53.21544 | 0.70372 | 35715 ft | 431 kts | 280° |
| 2026-05-07 12:46 | 53.22090 | 0.65455 | 35230 ft | 428 kts | 280° |
| 2026-05-07 12:46 | 53.22629 | 0.60588 | 34689 ft | 426 kts | 280° |
| 2026-05-07 12:46 | 53.23161 | 0.55722 | 34089 ft | 427 kts | 280° |
| 2026-05-07 12:46 | 53.23693 | 0.50852 | 33572 ft | 425 kts | 280° |
| 2026-05-07 12:47 | 53.24220 | 0.46019 | 33112 ft | 422 kts | 280° |
| 2026-05-07 12:47 | 53.24741 | 0.41218 | 32599 ft | 420 kts | 280° |
| 2026-05-07 12:47 | 53.25260 | 0.36425 | 32076 ft | 418 kts | 280° |
| 2026-05-07 12:47 | 53.25776 | 0.31641 | 31615 ft | 416 kts | 280° |
| 2026-05-07 12:48 | 53.26283 | 0.26910 | 31147 ft | 413 kts | 279° |
| 2026-05-07 12:48 | 53.26788 | 0.22190 | 30687 ft | 411 kts | 279° |
| 2026-05-07 12:48 | 53.27281 | 0.17564 | 30223 ft | 408 kts | 279° |
| 2026-05-07 12:48 | 53.27775 | 0.12904 | 29767 ft | 406 kts | 279° |
| 2026-05-07 12:49 | 53.28265 | 0.08267 | 29315 ft | 403 kts | 279° |
| 2026-05-07 12:49 | 53.28788 | 0.03665 | 28826 ft | 402 kts | 283° |
| 2026-05-07 12:49 | 53.29778 | -0.00704 | 28182 ft | 405 kts | 299° |
| 2026-05-07 12:49 | 53.31231 | -0.04719 | 27719 ft | 402 kts | 301° |
| 2026-05-07 12:50 | 53.32561 | -0.08826 | 27198 ft | 401 kts | 293° |
| 2026-05-07 12:50 | 53.33655 | -0.13113 | 26660 ft | 401 kts | 294° |
| 2026-05-07 12:50 | 53.34837 | -0.17353 | 26117 ft | 401 kts | 295° |
| 2026-05-07 12:50 | 53.36039 | -0.21563 | 25568 ft | 401 kts | 295° |
| 2026-05-07 12:51 | 53.37256 | -0.25782 | 25015 ft | 402 kts | 295° |
| 2026-05-07 12:51 | 53.38474 | -0.29989 | 24466 ft | 401 kts | 295° |
| 2026-05-07 12:51 | 53.39691 | -0.34194 | 23919 ft | 401 kts | 295° |
| 2026-05-07 12:51 | 53.40907 | -0.38400 | 23374 ft | 401 kts | 295° |
| 2026-05-07 12:52 | 53.42121 | -0.42608 | 22827 ft | 400 kts | 295° |
| 2026-05-07 12:52 | 53.43316 | -0.46757 | 22290 ft | 400 kts | 295° |
| 2026-05-07 12:52 | 53.44540 | -0.51016 | 21738 ft | 399 kts | 295° |
| 2026-05-07 12:52 | 53.45726 | -0.55147 | 21201 ft | 399 kts | 295° |
| 2026-05-07 12:53 | 53.46941 | -0.59392 | 20649 ft | 398 kts | 295° |
| 2026-05-07 12:53 | 53.48122 | -0.63519 | 20114 ft | 397 kts | 295° |
| 2026-05-07 12:53 | 53.49312 | -0.67689 | 19579 ft | 396 kts | 295° |
| 2026-05-07 12:53 | 53.50499 | -0.71855 | 19041 ft | 395 kts | 295° |
| 2026-05-07 12:54 | 53.51682 | -0.76017 | 18508 ft | 394 kts | 295° |
| 2026-05-07 12:54 | 53.52862 | -0.80175 | 17966 ft | 393 kts | 295° |
| 2026-05-07 12:54 | 53.54115 | -0.84253 | 17302 ft | 395 kts | 303° |
| 2026-05-07 12:54 | 53.55967 | -0.87664 | 16765 ft | 394 kts | 322° |
| 2026-05-07 12:55 | 53.58300 | -0.89931 | 16676 ft | 380 kts | 334° |
| 2026-05-07 12:55 | 53.60613 | -0.91985 | 16364 ft | 373 kts | 325° |
| 2026-05-07 12:55 | 53.62382 | -0.95114 | 15952 ft | 368 kts | 300° |
| 2026-05-07 12:55 | 53.63187 | -0.99140 | 15547 ft | 363 kts | 275° |
| 2026-05-07 12:56 | 53.62893 | -1.03300 | 15155 ft | 358 kts | 249° |
| 2026-05-07 12:56 | 53.61637 | -1.06858 | 14789 ft | 353 kts | 232° |
| 2026-05-07 12:56 | 53.60233 | -1.10237 | 14333 ft | 352 kts | 242° |
| 2026-05-07 12:56 | 53.59482 | -1.14133 | 13906 ft | 350 kts | 263° |
| 2026-05-07 12:57 | 53.59373 | -1.18168 | 13498 ft | 348 kts | 267° |
| 2026-05-07 12:57 | 53.59104 | -1.22225 | 13033 ft | 348 kts | 261° |
| 2026-05-07 12:57 | 53.58684 | -1.26220 | 12572 ft | 347 kts | 258° |
| 2026-05-07 12:57 | 53.58181 | -1.30188 | 12116 ft | 347 kts | 257° |
| 2026-05-07 12:58 | 53.57626 | -1.34155 | 11650 ft | 346 kts | 256° |
| 2026-05-07 12:58 | 53.57060 | -1.38073 | 11231 ft | 344 kts | 256° |
| 2026-05-07 12:58 | 53.56463 | -1.41980 | 10741 ft | 345 kts | 255° |
| 2026-05-07 12:58 | 53.55866 | -1.45836 | 10250 ft | 345 kts | 255° |
| 2026-05-07 12:59 | 53.55255 | -1.49738 | 9771 ft | 344 kts | 255° |
| 2026-05-07 12:59 | 53.54654 | -1.53577 | 9310 ft | 333 kts | 255° |
| 2026-05-07 12:59 | 53.54072 | -1.57277 | 8878 ft | 321 kts | 255° |
| 2026-05-07 12:59 | 53.53511 | -1.60850 | 8458 ft | 311 kts | 255° |
| 2026-05-07 13:00 | 53.52966 | -1.64302 | 8062 ft | 301 kts | 255° |
| 2026-05-07 13:00 | 53.52434 | -1.67658 | 7673 ft | 292 kts | 255° |
| 2026-05-07 13:00 | 53.52191 | -1.69192 | 7486 ft | 288 kts | 255° |
| 2026-05-07 13:00 | 53.51681 | -1.72399 | 7113 ft | 280 kts | 255° |
| 2026-05-07 13:01 | 53.51185 | -1.75521 | 6736 ft | 274 kts | 255° |
| 2026-05-07 13:01 | 53.50694 | -1.78597 | 6414 ft | 271 kts | 255° |
| 2026-05-07 13:01 | 53.50205 | -1.81662 | 6041 ft | 272 kts | 255° |
| 2026-05-07 13:01 | 53.49720 | -1.84700 | 5668 ft | 266 kts | 255° |
| 2026-05-07 13:02 | 53.49245 | -1.87665 | 5307 ft | 259 kts | 255° |
| 2026-05-07 13:02 | 53.48790 | -1.90511 | 4991 ft | 253 kts | 255° |
| 2026-05-07 13:02 | 53.48337 | -1.93335 | 4648 ft | 248 kts | 255° |
| 2026-05-07 13:02 | 53.47901 | -1.96043 | 4387 ft | 233 kts | 254° |
| 2026-05-07 13:03 | 53.47484 | -1.98620 | 4081 ft | 224 kts | 254° |
| 2026-05-07 13:03 | 53.47086 | -2.01085 | 3799 ft | 215 kts | 254° |
| 2026-05-07 13:03 | 53.46623 | -2.03448 | 3508 ft | 213 kts | 244° |
| 2026-05-07 13:03 | 53.45812 | -2.05513 | 3200 ft | 210 kts | 231° |
| 2026-05-07 13:04 | 53.44900 | -2.07382 | 2981 ft | 205 kts | 231° |
| 2026-05-07 13:04 | 53.44015 | -2.09237 | 2711 ft | 202 kts | 231° |
| 2026-05-07 13:04 | 53.43158 | -2.11047 | 2476 ft | 193 kts | 230° |
| 2026-05-07 13:04 | 53.42330 | -2.12786 | 2240 ft | 188 kts | 232° |
| 2026-05-07 13:05 | 53.41564 | -2.14436 | 2002 ft | 170 kts | 231° |
| 2026-05-07 13:05 | 53.40854 | -2.15907 | 1762 ft | 156 kts | 231° |
| 2026-05-07 13:05 | 53.40206 | -2.17276 | 1534 ft | 146 kts | 231° |
| 2026-05-07 13:05 | 53.39578 | -2.18602 | 1359 ft | 145 kts | 231° |
| 2026-05-07 13:06 | 53.38949 | -2.19922 | 1157 ft | 144 kts | 231° |
| 2026-05-07 13:06 | 53.38324 | -2.21235 | 991 ft | 144 kts | 231° |
| 2026-05-07 13:06 | 53.37718 | -2.22575 | 840 ft | 144 kts | 233° |
| 2026-05-07 13:06 | 53.37122 | -2.23896 | 594 ft | 143 kts | 231° |
| 2026-05-07 13:07 | 53.36491 | -2.25182 | 398 ft | 143 kts | 231° |
| 2026-05-07 13:07 | 53.35877 | -2.26464 | 259 ft | 135 kts | 229° |
| 2026-05-07 13:07 | 53.35390 | -2.27467 | 245 ft | 78 kts | 231° |
| 2026-05-07 13:07 | 53.35120 | -2.28022 | 236 ft | 54 kts | 231° |
| 2026-05-07 13:08 | 53.35018 | -2.28247 | 231 ft | 29 kts | 243° |
| 2026-05-07 13:08 | 53.34955 | -2.28509 | 231 ft | 18 kts | 259° |
| 2026-05-07 13:08 | 53.34941 | -2.28650 | 228 ft | 12 kts | 261° |
| 2026-05-07 13:08 | 53.34968 | -2.28759 | 228 ft | 12 kts | 351° |
| 2026-05-07 13:09 | 53.35041 | -2.28694 | 228 ft | 11 kts | 49° |
| 2026-05-07 13:09 | 53.35088 | -2.28595 | 229 ft | 12 kts | 51° |
| 2026-05-07 13:09 | 53.35127 | -2.28513 | 228 ft | 10 kts | 51° |
| 2026-05-07 13:09 | 53.35176 | -2.28410 | 229 ft | 12 kts | 52° |
| 2026-05-07 13:10 | 53.35228 | -2.28295 | 230 ft | 13 kts | 53° |
| 2026-05-07 13:10 | 53.35290 | -2.28174 | 233 ft | 13 kts | 39° |
| 2026-05-07 13:10 | 53.35355 | -2.28084 | 240 ft | 12 kts | 43° |
| 2026-05-07 13:10 | 53.35418 | -2.27981 | 237 ft | 13 kts | 44° |
| 2026-05-07 13:11 | 53.35476 | -2.27887 | 240 ft | 11 kts | 44° |
| 2026-05-07 13:11 | 53.35532 | -2.27796 | 241 ft | 11 kts | 44° |
| 2026-05-07 13:11 | 53.35586 | -2.27708 | 241 ft | 11 kts | 44° |
| 2026-05-07 13:11 | 53.35604 | -2.27679 | 242 ft | 1 kts | 44° |
| 2026-05-07 13:12 | 53.35612 | -2.27667 | 242 ft | 0 kts | 44° |
| 2026-05-07 13:12 | 53.35613 | -2.27666 | 242 ft | 0 kts | 43° |
| 2026-05-07 13:12 | 53.35618 | -2.27658 | 242 ft | 1 kts | 43° |
| 2026-05-07 13:12 | 53.35628 | -2.27642 | 242 ft | 3 kts | 43° |
| 2026-05-07 13:13 | 53.35644 | -2.27616 | 243 ft | 4 kts | 43° |
| 2026-05-07 13:13 | 53.35666 | -2.27575 | 243 ft | 5 kts | 53° |
| 2026-05-07 13:13 | 53.35693 | -2.27517 | 244 ft | 7 kts | 51° |
| 2026-05-07 13:13 | 53.35727 | -2.27446 | 245 ft | 8 kts | 51° |
| 2026-05-07 13:14 | 53.35765 | -2.27369 | 246 ft | 9 kts | 50° |
| 2026-05-07 13:14 | 53.35811 | -2.27277 | 246 ft | 11 kts | 52° |
| 2026-05-07 13:14 | 53.35801 | -2.27156 | 246 ft | 12 kts | 121° |
| 2026-05-07 13:14 | 53.35789 | -2.27080 | 247 ft | 2 kts | 46° |
| 2026-05-07 13:15 | 53.35797 | -2.27070 | 247 ft | 0 kts | 23° |
| 2026-05-07 13:15 | 53.35798 | -2.27070 | 247 ft | 1 kts | 23° |
| 2026-05-07 13:15 | 53.35814 | -2.27051 | 247 ft | 5 kts | 41° |
| 2026-05-07 13:15 | 53.35837 | -2.26988 | 246 ft | 8 kts | 60° |
| 2026-05-07 13:16 | 53.35867 | -2.26910 | 247 ft | 7 kts | 53° |
| 2026-05-07 13:16 | 53.35900 | -2.26844 | 248 ft | 8 kts | 31° |
| 2026-05-07 13:16 | 53.35959 | -2.26848 | 247 ft | 9 kts | 338° |
| 2026-05-07 13:16 | 53.36001 | -2.26912 | 246 ft | 7 kts | 313° |
| 2026-05-07 13:17 | 53.36007 | -2.26923 | 246 ft | 0 kts | 313° |
| 2026-05-07 13:17 | 53.36009 | -2.26926 | 246 ft | 0 kts | 313° |